MST,Max TemperatureF,Mean TemperatureF,Min TemperatureF,Max Dew PointF,MeanDew PointF,Min DewpointF,Max Humidity, Mean Humidity, Min Humidity, Max Sea Level PressureIn, Mean Sea Level PressureIn, Min Sea Level PressureIn, Max VisibilityMiles, Mean VisibilityMiles, Min VisibilityMiles, Max Wind SpeedMPH, Mean Wind SpeedMPH, Max Gust SpeedMPH,PrecipitationIn, CloudCover, Events, WindDirDegrees
2013-3-1,54,35,16,23,17,10,80,54,28,30.49,30.39,30.34,10,10,10,22,7,28,0.00,0,,73
2013-3-2,63,42,20,24,19,14,91,54,16,30.45,30.32,30.14,10,10,10,14,3,16,0.00,0,,127
2013-3-3,53,40,27,24,20,12,75,47,19,30.13,30.00,29.86,10,10,10,28,11,40,0.00,3,,237
2013-3-4,53,40,26,26,21,18,75,51,26,30.14,29.92,29.80,10,10,10,16,5,23,0.00,1,,254
2013-3-5,53,37,20,23,19,15,91,59,26,30.27,30.14,30.04,10,10,10,16,3,20,0.00,0,,194
2013-3-6,55,40,25,28,23,20,69,49,28,30.08,29.97,29.90,10,10,10,25,8,32,0.00,0,,225
2013-3-7,54,38,22,25,21,17,92,60,27,29.97,29.90,29.84,10,10,10,29,9,37,0.00,0,,212
2013-3-8,39,31,22,31,28,19,100,77,54,29.89,29.78,29.62,10,3,0,28,11,36,1.24,7,Fog-Snow,217
2013-3-9,30,25,19,28,24,18,100,91,81,30.10,29.92,29.79,10,4,0,20,11,25,0.13,7,Fog-Snow,229
2013-3-10,44,32,20,24,19,13,92,61,30,30.27,30.16,30.06,10,10,10,31,12,36,0.00,1,,48
2013-3-11,55,33,10,26,16,7,84,51,18,30.29,30.20,30.14,10,10,10,14,2,17,0.00,0,,220
2013-3-12,55,36,17,24,20,14,84,56,28,30.29,30.21,30.13,10,10,10,21,6,29,0.00,0,,65
2013-3-13,61,42,22,27,23,19,88,57,26,30.36,30.28,30.24,10,10,10,14,4,18,0.00,0,,72
2013-3-14,67,48,28,25,22,16,75,45,15,30.41,30.24,30.16,10,10,10,14,6,18,0.00,0,,72
2013-3-15,67,48,29,29,25,21,75,47,18,30.19,30.07,29.93,10,10,9,22,7,26,0.00,0,,232
2013-3-16,62,46,30,38,28,20,92,56,20,30.07,29.89,29.79,10,10,10,23,5,30,0.01,1,,233
2013-3-17,62,45,28,32,13,-2,92,50,8,29.91,29.85,29.79,10,10,10,20,7,29,0.00,0,,256
2013-3-18,60,43,26,26,14,6,58,36,14,29.99,29.95,29.90,10,10,10,23,6,36,0.00,0,,239
2013-3-19,57,43,28,29,21,17,70,46,21,30.14,30.02,29.92,10,10,10,14,3,18,0.00,4,,89
2013-3-20,57,42,26,28,24,19,75,54,32,30.13,29.99,29.78,10,10,10,29,10,39,0.00,0,,232
2013-3-21,61,46,31,30,15,2,75,43,11,29.81,29.75,29.67,10,10,10,20,7,26,0.00,0,,264
2013-3-22,57,40,23,19,5,-18,60,33,6,29.87,29.73,29.69,10,10,10,25,8,36,0.00,1,,252
2013-3-23,47,34,21,5,-6,-15,45,27,8,30.06,29.91,29.73,10,10,10,20,7,32,0.00,0,,306
2013-3-24,53,34,15,9,5,2,61,37,13,30.10,30.02,29.96,10,10,10,16,4,25,0.00,0,,295
2013-3-25,61,40,18,16,10,4,62,38,14,30.10,30.03,29.97,10,10,10,18,3,26,0.00,0,,73
2013-3-26,59,42,25,21,16,14,63,41,19,30.02,29.95,29.89,10,10,10,28,10,35,0.00,0,,223
2013-3-27,59,42,25,20,16,15,63,41,19,30.01,29.96,29.89,10,10,10,24,6,29,0.00,0,,219
2013-3-28,59,43,27,23,19,17,63,44,24,30.07,30.03,29.98,10,10,10,24,7,30,0.00,0,,232
2013-3-29,65,47,29,24,21,17,56,38,19,30.23,30.10,30.04,10,10,10,20,4,29,0.00,2,,232
2013-3-30,60,46,31,28,23,20,75,49,23,30.13,30.08,30.04,10,10,10,17,4,22,0.00,4,,229
2013-3-31,64,47,30,30,25,22,78,51,23,30.07,30.00,29.91,10,10,10,23,8,33,0.00,1,,219